createdAt,value
2023-11-15T00:01:44.260Z,10.72
2023-11-15T00:04:46.009Z,10.69
2023-11-15T00:07:47.821Z,10.61
2023-11-15T00:10:49.737Z,10.50
2023-11-15T00:13:52.393Z,10.69
2023-11-15T00:16:54.303Z,10.70
2023-11-15T00:19:56.580Z,10.60
2023-11-15T00:22:58.415Z,10.53
2023-11-15T00:26:00.462Z,10.58
2023-11-15T00:29:03.259Z,10.56
2023-11-15T00:32:06.061Z,10.63
2023-11-15T00:35:09.792Z,10.66
2023-11-15T00:38:12.548Z,10.80
2023-11-15T00:41:14.381Z,10.68
2023-11-15T00:44:17.601Z,10.61
2023-11-15T00:47:19.993Z,10.56
2023-11-15T00:50:22.854Z,10.43
2023-11-15T00:53:25.962Z,10.43
2023-11-15T00:56:28.264Z,10.42
2023-11-15T00:59:38.543Z,10.45
2023-11-15T01:02:47.644Z,10.45
2023-11-15T01:05:49.588Z,10.43
2023-11-15T01:08:52.560Z,10.30
2023-11-15T01:11:54.410Z,10.32
2023-11-15T01:14:56.378Z,10.25
2023-11-15T01:17:58.551Z,10.19
2023-11-15T01:21:01.524Z,10.24
2023-11-15T01:24:04.261Z,10.08
2023-11-15T01:27:07.228Z,10.19
2023-11-15T01:30:10.111Z,10.17
2023-11-15T01:33:12.101Z,10.24
2023-11-15T01:36:14.544Z,10.11
2023-11-15T01:39:19.127Z,10.17
2023-11-15T01:42:21.002Z,10.19
2023-11-15T01:45:22.815Z,10.01
2023-11-15T01:48:24.882Z,9.97
2023-11-15T01:51:26.984Z,10.06
2023-11-15T01:54:30.540Z,10.05
2023-11-15T01:57:32.416Z,9.96
2023-11-15T02:00:35.317Z,9.94
2023-11-15T02:03:38.214Z,9.92
2023-11-15T02:06:40.115Z,9.99
2023-11-15T02:09:42.387Z,10.06
2023-11-15T02:12:44.222Z,10.10
2023-11-15T02:15:47.363Z,10.15
2023-11-15T02:18:49.891Z,10.15
2023-11-15T02:21:52.334Z,9.97
2023-11-15T02:24:54.200Z,9.89
2023-11-15T02:27:55.994Z,9.84
2023-11-15T02:30:57.795Z,9.95
2023-11-15T02:33:59.675Z,9.91
2023-11-15T02:37:01.898Z,9.85
2023-11-15T02:40:06.058Z,9.73
2023-11-15T02:43:07.889Z,9.66
2023-11-15T02:46:09.700Z,9.80
2023-11-15T02:49:11.620Z,9.61
2023-11-15T02:52:13.459Z,9.64
2023-11-15T02:55:15.427Z,9.53
2023-11-15T02:58:17.282Z,9.57
2023-11-15T03:01:19.233Z,9.60
2023-11-15T03:04:21.064Z,9.49
2023-11-15T03:07:22.840Z,9.51
2023-11-15T03:10:25.460Z,9.56
2023-11-15T03:13:27.318Z,9.45
2023-11-15T03:16:29.195Z,9.38
2023-11-15T03:19:31.092Z,9.28
2023-11-15T03:22:33.841Z,9.11
2023-11-15T03:25:35.603Z,9.16
2023-11-15T03:28:37.338Z,9.04
2023-11-15T03:31:39.336Z,9.03
2023-11-15T03:34:45.049Z,9.06
2023-11-15T03:37:46.969Z,9.14
2023-11-15T03:40:49.130Z,9.07
2023-11-15T03:43:52.885Z,8.93
2023-11-15T03:46:54.637Z,8.88
2023-11-15T03:49:56.905Z,9.06
2023-11-15T03:52:58.685Z,9.17
2023-11-15T03:56:00.529Z,9.06
2023-11-15T03:59:02.345Z,8.99
2023-11-15T04:02:04.194Z,9.08
2023-11-15T04:05:07.629Z,9.04
2023-11-15T04:08:10.453Z,8.95
2023-11-15T04:11:12.281Z,8.90
2023-11-15T04:14:15.081Z,8.71
2023-11-15T04:17:16.919Z,8.63
2023-11-15T04:20:18.927Z,8.62
2023-11-15T04:23:20.766Z,8.46
2023-11-15T04:26:23.623Z,8.27
2023-11-15T04:29:26.376Z,8.41
2023-11-15T04:32:28.205Z,8.53
2023-11-15T04:35:30.134Z,8.55
2023-11-15T04:38:32.423Z,8.55
2023-11-15T04:41:35.331Z,8.48
2023-11-15T04:44:37.293Z,8.51
2023-11-15T04:47:39.238Z,8.40
2023-11-15T04:50:41.242Z,8.40
2023-11-15T04:53:43.247Z,8.24
2023-11-15T04:56:45.101Z,8.24
2023-11-15T04:59:46.937Z,8.15
2023-11-15T05:02:48.833Z,7.88
2023-11-15T05:05:50.875Z,7.88
2023-11-15T05:08:52.718Z,7.88
2023-11-15T05:11:54.581Z,7.88
2023-11-15T05:14:56.830Z,7.93
2023-11-15T05:17:59.204Z,7.76
2023-11-15T05:21:01.019Z,7.76
2023-11-15T05:24:04.150Z,7.81
2023-11-15T05:27:06.442Z,7.70
2023-11-15T05:30:08.619Z,7.60
2023-11-15T05:33:10.502Z,7.51
2023-11-15T05:36:12.284Z,7.36
2023-11-15T05:39:14.259Z,7.43
2023-11-15T05:42:16.631Z,7.50
2023-11-15T05:45:18.427Z,7.34
2023-11-15T05:48:20.228Z,7.02
2023-11-15T05:51:22.520Z,6.93
2023-11-15T05:54:24.301Z,6.89
2023-11-15T05:57:26.097Z,6.91
2023-11-15T06:00:27.944Z,7.15
2023-11-15T06:03:29.958Z,6.85
2023-11-15T06:06:31.829Z,7.11
2023-11-15T06:09:33.790Z,7.24
2023-11-15T06:12:36.626Z,7.39
2023-11-15T06:15:38.583Z,7.54
2023-11-15T06:18:40.630Z,7.64
2023-11-15T06:21:44.868Z,7.82
2023-11-15T06:24:46.708Z,7.74
2023-11-15T06:27:48.590Z,7.67
2023-11-15T06:30:51.018Z,7.84
2023-11-15T06:33:52.867Z,8.21
2023-11-15T06:36:56.628Z,8.45
2023-11-15T06:39:58.487Z,8.85
2023-11-15T06:43:00.219Z,9.07
2023-11-15T06:46:01.979Z,9.29
2023-11-15T06:49:03.750Z,9.60
2023-11-15T06:52:07.210Z,9.78
2023-11-15T06:55:12.899Z,9.91
2023-11-15T06:58:20.836Z,10.07
2023-11-15T07:01:23.315Z,9.99
2023-11-15T07:04:25.096Z,10.12
2023-11-15T07:07:26.933Z,10.19
2023-11-15T07:10:31.337Z,10.55
2023-11-15T07:13:33.078Z,10.83
2023-11-15T07:16:36.564Z,11.20
2023-11-15T07:19:39.622Z,11.35
2023-11-15T07:22:41.533Z,11.28
2023-11-15T07:25:43.428Z,11.44
2023-11-15T07:28:45.145Z,11.54
2023-11-15T07:31:54.641Z,11.47
2023-11-15T07:34:56.974Z,11.47
2023-11-15T07:37:58.796Z,11.53
2023-11-15T07:41:00.941Z,11.63
2023-11-15T07:44:03.084Z,11.68
2023-11-15T07:47:05.124Z,11.78
2023-11-15T07:50:08.059Z,11.70
2023-11-15T07:53:09.812Z,11.92
2023-11-15T07:56:11.705Z,11.96
2023-11-15T07:59:13.620Z,12.01
2023-11-15T08:02:15.396Z,12.13
2023-11-15T08:05:17.307Z,12.12
2023-11-15T08:08:19.142Z,12.20
2023-11-15T08:11:23.406Z,12.29
2023-11-15T08:14:26.786Z,12.17
2023-11-15T08:17:29.306Z,12.30
2023-11-15T08:20:31.161Z,12.35
2023-11-15T08:23:33.220Z,12.38
2023-11-15T08:26:35.103Z,12.44
2023-11-15T08:29:36.996Z,12.53
2023-11-15T08:32:40.769Z,12.63
2023-11-15T08:35:45.029Z,12.74
2023-11-15T08:38:47.118Z,12.70
2023-11-15T08:41:49.296Z,12.84
2023-11-15T08:44:52.045Z,12.83
2023-11-15T08:47:58.380Z,12.94
2023-11-15T08:51:03.984Z,12.94
2023-11-15T08:54:07.143Z,13.01
2023-11-15T08:57:09.059Z,12.95
2023-11-15T09:00:17.484Z,12.96
2023-11-15T09:03:19.548Z,12.98
2023-11-15T09:06:24.439Z,12.97
2023-11-15T09:09:27.424Z,12.83
2023-11-15T09:12:31.980Z,12.91
2023-11-15T09:15:33.723Z,13.06
2023-11-15T09:18:35.619Z,13.01
2023-11-15T09:21:38.407Z,13.03
2023-11-15T09:24:41.592Z,12.98
2023-11-15T09:27:44.179Z,13.00
2023-11-15T09:30:46.879Z,12.93
2023-11-15T09:33:48.812Z,13.03
2023-11-15T09:36:50.715Z,13.03
2023-11-15T09:39:52.520Z,13.06
2023-11-15T09:43:01.835Z,12.91
2023-11-15T09:46:10.048Z,12.83
2023-11-15T09:49:15.469Z,12.88
2023-11-15T09:52:17.846Z,12.65
2023-11-15T09:55:22.988Z,12.76
2023-11-15T09:58:24.839Z,12.74
2023-11-15T10:01:27.851Z,12.78
2023-11-15T10:04:30.625Z,12.87
2023-11-15T10:07:32.479Z,12.78
2023-11-15T10:10:34.250Z,12.65
2023-11-15T10:13:39.658Z,12.76
2023-11-15T10:16:49.665Z,12.85
2023-11-15T10:19:51.479Z,12.96
2023-11-15T10:22:54.667Z,12.89
2023-11-15T10:25:59.313Z,12.94
2023-11-15T10:29:10.470Z,12.89
2023-11-15T10:32:13.842Z,12.84
2023-11-15T10:35:29.057Z,12.79
2023-11-15T10:38:35.623Z,12.91
2023-11-15T10:41:37.768Z,13.00
2023-11-15T10:44:41.697Z,12.87
2023-11-15T10:47:56.157Z,12.82
2023-11-15T10:51:00.848Z,12.85
2023-11-15T10:54:05.194Z,12.88
2023-11-15T10:57:11.071Z,12.76
2023-11-15T11:00:21.637Z,12.80
2023-11-15T11:03:26.559Z,12.81
2023-11-15T11:06:40.439Z,12.88
2023-11-15T11:09:54.163Z,13.05
2023-11-15T11:12:57.782Z,12.98
2023-11-15T11:16:34.973Z,13.02
2023-11-15T11:19:48.496Z,13.06
2023-11-15T11:23:24.014Z,13.04
2023-11-15T11:26:37.343Z,13.19
2023-11-15T11:30:14.175Z,13.14
2023-11-15T11:33:20.725Z,13.22
2023-11-15T11:36:45.106Z,13.21
2023-11-15T11:39:47.353Z,13.72
2023-11-15T11:42:49.956Z,13.58
2023-11-15T11:45:56.316Z,13.25
2023-11-15T11:49:01.243Z,13.40
2023-11-15T11:52:03.442Z,13.24
2023-11-15T11:55:06.550Z,13.35
2023-11-15T11:58:08.361Z,13.52
2023-11-15T12:01:12.644Z,13.58
2023-11-15T12:04:14.763Z,13.63
2023-11-15T12:07:16.759Z,13.71
2023-11-15T12:10:19.809Z,13.71
2023-11-15T12:13:21.667Z,13.78
2023-11-15T12:16:25.742Z,13.67
2023-11-15T12:19:27.968Z,13.75
2023-11-15T12:22:30.954Z,13.74
2023-11-15T12:25:34.288Z,13.62
2023-11-15T12:28:36.556Z,13.93
2023-11-15T12:31:39.121Z,13.83
2023-11-15T12:34:41.087Z,13.91
2023-11-15T12:37:43.339Z,13.94
2023-11-15T12:40:48.857Z,13.95
2023-11-15T12:44:04.015Z,13.98
2023-11-15T12:47:06.127Z,13.79
2023-11-15T12:50:08.951Z,13.61
2023-11-15T12:53:12.931Z,13.46
2023-11-15T12:56:20.517Z,13.60
2023-11-15T12:59:33.897Z,13.63
2023-11-15T13:02:37.867Z,13.67
2023-11-15T13:05:39.927Z,13.65
2023-11-15T13:08:54.088Z,13.43
2023-11-15T13:11:56.128Z,13.62
2023-11-15T13:14:58.002Z,13.60
2023-11-15T13:17:59.894Z,13.59
2023-11-15T13:21:01.786Z,13.71
2023-11-15T13:24:03.818Z,13.50
2023-11-15T13:27:05.665Z,13.73
2023-11-15T13:30:08.732Z,13.71
2023-11-15T13:33:10.927Z,13.52
2023-11-15T13:36:14.149Z,13.65
2023-11-15T13:39:16.464Z,13.74
2023-11-15T13:42:18.362Z,13.82
2023-11-15T13:45:21.429Z,13.88
2023-11-15T13:48:23.818Z,13.82
2023-11-15T13:51:25.651Z,13.90
2023-11-15T13:54:27.468Z,13.83
2023-11-15T13:57:29.349Z,13.76
2023-11-15T14:00:35.048Z,13.62
2023-11-15T14:03:37.351Z,13.64
2023-11-15T14:06:39.213Z,13.58
2023-11-15T14:09:41.320Z,13.65
2023-11-15T14:12:43.197Z,13.53
2023-11-15T14:15:46.959Z,13.54
2023-11-15T14:18:51.047Z,13.56
2023-11-15T14:21:53.478Z,13.50
2023-11-15T14:24:55.591Z,13.57
2023-11-15T14:27:58.486Z,13.53
2023-11-15T14:31:01.449Z,13.44
2023-11-15T14:34:03.297Z,13.46
2023-11-15T14:37:05.065Z,13.24
2023-11-15T14:40:07.639Z,13.16
2023-11-15T14:43:11.085Z,13.24
2023-11-15T14:46:12.907Z,13.19
2023-11-15T14:49:14.816Z,13.21
2023-11-15T14:52:22.501Z,13.19
2023-11-15T14:55:29.101Z,13.11
2023-11-15T14:58:30.860Z,13.10
2023-11-15T15:01:33.278Z,13.13
2023-11-15T15:04:35.307Z,13.09
2023-11-15T15:07:37.811Z,13.09
2023-11-15T15:10:39.626Z,13.10
2023-11-15T15:13:41.345Z,13.12
2023-11-15T15:16:43.126Z,13.06
2023-11-15T15:19:44.913Z,13.04
2023-11-15T15:22:48.130Z,13.15
2023-11-15T15:25:50.741Z,13.03
2023-11-15T15:28:52.657Z,13.00
2023-11-15T15:31:54.582Z,12.94
2023-11-15T15:34:58.436Z,12.80
2023-11-15T15:38:01.011Z,12.79
2023-11-15T15:41:04.560Z,12.72
2023-11-15T15:44:07.279Z,12.76
2023-11-15T15:47:09.222Z,12.71
2023-11-15T15:50:12.382Z,12.70
2023-11-15T15:53:14.242Z,12.65
2023-11-15T15:56:17.270Z,12.79
2023-11-15T15:59:19.029Z,12.79
2023-11-15T16:02:20.778Z,12.69
2023-11-15T16:05:23.850Z,12.73
2023-11-15T16:08:25.620Z,12.65
2023-11-15T16:11:27.449Z,12.60
2023-11-15T16:14:29.471Z,12.87
2023-11-15T16:17:35.721Z,12.89
2023-11-15T16:20:38.671Z,12.96
2023-11-15T16:23:40.482Z,12.80
2023-11-15T16:26:42.681Z,12.84
2023-11-15T16:29:44.522Z,12.65
2023-11-15T16:32:46.460Z,12.60
2023-11-15T16:35:49.503Z,12.65
2023-11-15T16:38:51.303Z,12.68
2023-11-15T16:41:55.747Z,12.61
2023-11-15T16:44:57.664Z,12.71
2023-11-15T16:48:00.009Z,12.61
2023-11-15T16:51:02.063Z,12.63
2023-11-15T16:54:04.093Z,12.80
2023-11-15T16:57:06.586Z,12.75
2023-11-15T17:00:10.295Z,12.71
2023-11-15T17:03:12.378Z,12.66
2023-11-15T17:06:17.295Z,12.66
2023-11-15T17:09:19.638Z,12.66
2023-11-15T17:12:24.435Z,12.62
2023-11-15T17:15:27.771Z,12.69
2023-11-15T17:18:29.908Z,12.75
2023-11-15T17:21:31.856Z,12.76
2023-11-15T17:24:34.221Z,12.64
2023-11-15T17:27:35.969Z,12.59
2023-11-15T17:30:37.822Z,12.68
2023-11-15T17:33:41.666Z,12.72
2023-11-15T17:36:44.757Z,12.62
2023-11-15T17:39:46.549Z,12.64
2023-11-15T17:42:48.371Z,12.62
2023-11-15T17:45:50.195Z,12.59
2023-11-15T17:48:52.415Z,12.47
2023-11-15T17:51:54.699Z,12.54
2023-11-15T17:54:57.110Z,12.49
2023-11-15T17:57:58.994Z,12.48
2023-11-15T18:01:02.961Z,12.42
2023-11-15T18:04:06.758Z,12.40
2023-11-15T18:07:08.632Z,12.41
2023-11-15T18:10:14.668Z,12.41
2023-11-15T18:13:16.878Z,12.32
2023-11-15T18:16:19.382Z,12.19
2023-11-15T18:19:22.509Z,12.21
2023-11-15T18:22:24.351Z,12.29
2023-11-15T18:25:27.570Z,12.18
2023-11-15T18:28:31.151Z,12.15
2023-11-15T18:31:32.955Z,12.20
2023-11-15T18:34:34.750Z,12.19
2023-11-15T18:37:37.694Z,11.97
2023-11-15T18:40:40.006Z,12.12
2023-11-15T18:43:42.282Z,12.00
2023-11-15T18:46:52.322Z,12.09
2023-11-15T18:49:55.497Z,12.08
2023-11-15T18:52:59.405Z,12.21
2023-11-15T18:56:03.072Z,12.11
2023-11-15T18:59:06.115Z,12.16
2023-11-15T19:02:08.937Z,12.19
2023-11-15T19:05:13.004Z,12.25
2023-11-15T19:08:15.660Z,12.35
2023-11-15T19:11:17.429Z,12.25
2023-11-15T19:14:19.527Z,12.37
2023-11-15T19:17:22.767Z,12.43
2023-11-15T19:20:24.678Z,12.34
2023-11-15T19:23:26.822Z,12.42
2023-11-15T19:26:30.052Z,12.38
2023-11-15T19:29:31.916Z,12.30
2023-11-15T19:32:35.083Z,12.23
2023-11-15T19:35:37.537Z,12.08
2023-11-15T19:38:39.397Z,12.04
2023-11-15T19:41:41.161Z,12.03
2023-11-15T19:44:43.028Z,11.82
2023-11-15T19:47:45.603Z,11.79
2023-11-15T19:50:48.683Z,11.78
2023-11-15T19:53:51.147Z,11.68
2023-11-15T19:56:53.044Z,11.51
2023-11-15T19:59:56.242Z,11.64
2023-11-15T20:02:59.593Z,11.54
2023-11-15T20:06:01.400Z,11.52
2023-11-15T20:09:03.254Z,11.29
2023-11-15T20:12:06.625Z,11.18
2023-11-15T20:15:11.360Z,11.25
2023-11-15T20:18:13.521Z,11.23
2023-11-15T20:21:15.405Z,11.12
2023-11-15T20:24:21.108Z,11.24
2023-11-15T20:27:23.287Z,11.16
2023-11-15T20:30:27.021Z,11.21
2023-11-15T20:33:29.161Z,11.23
2023-11-15T20:36:31.245Z,11.08
2023-11-15T20:39:34.491Z,11.13
2023-11-15T20:42:36.593Z,11.21
2023-11-15T20:45:39.479Z,11.10
2023-11-15T20:48:41.354Z,11.26
2023-11-15T20:51:48.829Z,11.18
2023-11-15T20:54:51.776Z,11.11
2023-11-15T20:57:59.926Z,11.08
2023-11-15T21:01:04.091Z,11.04
2023-11-15T21:04:08.797Z,10.88
2023-11-15T21:07:11.673Z,10.92
2023-11-15T21:10:16.449Z,10.70
2023-11-15T21:13:19.376Z,10.68
2023-11-15T21:16:21.274Z,10.69
2023-11-15T21:19:23.267Z,10.63
2023-11-15T21:22:25.207Z,10.53
2023-11-15T21:25:27.085Z,10.45
2023-11-15T21:28:29.051Z,10.44
2023-11-15T21:31:30.952Z,10.37
2023-11-15T21:34:32.941Z,10.38
2023-11-15T21:37:34.682Z,10.26
2023-11-15T21:40:36.558Z,10.14
2023-11-15T21:43:38.434Z,10.25
2023-11-15T21:46:40.209Z,10.12
2023-11-15T21:49:42.002Z,10.07
2023-11-15T21:52:44.650Z,10.13
2023-11-15T21:55:46.555Z,10.01
2023-11-15T21:58:48.451Z,10.15
2023-11-15T22:01:50.299Z,10.04
2023-11-15T22:04:53.127Z,10.01
2023-11-15T22:07:54.969Z,10.02
2023-11-15T22:10:56.774Z,9.98
2023-11-15T22:13:58.566Z,9.87
2023-11-15T22:17:00.308Z,9.81
2023-11-15T22:20:02.217Z,9.87
2023-11-15T22:23:05.129Z,9.77
2023-11-15T22:26:07.666Z,9.73
2023-11-15T22:29:11.794Z,9.74
2023-11-15T22:32:13.614Z,9.82
2023-11-15T22:35:15.715Z,9.70
2023-11-15T22:38:17.848Z,9.59
2023-11-15T22:41:19.641Z,9.63
2023-11-15T22:44:21.632Z,9.67
2023-11-15T22:47:23.456Z,9.56
2023-11-15T22:50:25.321Z,9.52
2023-11-15T22:53:27.201Z,9.60
2023-11-15T22:56:29.054Z,9.58
2023-11-15T22:59:30.904Z,9.66
2023-11-15T23:02:33.688Z,9.78
2023-11-15T23:05:47.651Z,9.75
2023-11-15T23:08:49.552Z,9.79
2023-11-15T23:11:52.010Z,9.74
2023-11-15T23:14:54.447Z,9.70
2023-11-15T23:17:56.250Z,9.65
2023-11-15T23:20:58.948Z,9.56
2023-11-15T23:24:00.920Z,9.70
2023-11-15T23:27:02.954Z,9.59
2023-11-15T23:30:05.524Z,9.74
2023-11-15T23:33:10.716Z,9.73
2023-11-15T23:36:13.287Z,9.71
2023-11-15T23:39:15.973Z,9.62
2023-11-15T23:42:21.348Z,9.58
2023-11-15T23:45:24.321Z,9.70
2023-11-15T23:48:26.159Z,9.66
2023-11-15T23:51:28.061Z,9.78
2023-11-15T23:54:30.155Z,9.67
2023-11-15T23:57:33.381Z,9.76
